Time;durP1;ratioP1;P1;durP2;ratioP2;P2;SDS_P1;SDS_P2;PMS_P1;PMS_P2;Temp;Humidity;BMP_temperature;BMP_pressure;BME280_temperature;BME280_humidity;BME280_pressure;Samples;Min_cycle;Max_cycle;Signal;HPM_P1;HPM_P2
2023/05/19 00:02:14;;;;;;;6.07;1.40;;;9.00;99.90;;;;;;5034168;28;20103;-34
2023/05/19 00:04:40;;;;;;;5.18;1.63;;;9.00;99.90;;;;;;5025494;28;20049;-34
2023/05/19 00:07:10;;;;;;;7.07;2.00;;;9.00;99.90;;;;;;5035475;28;20060;-34
2023/05/19 00:09:36;;;;;;;8.93;2.03;;;8.90;99.90;;;;;;5031122;28;20056;-34
2023/05/19 00:12:02;;;;;;;6.53;1.65;;;8.90;99.90;;;;;;5031419;28;20482;-34
2023/05/19 00:14:28;;;;;;;5.38;2.03;;;8.90;99.90;;;;;;5020124;28;20069;-34
2023/05/19 00:16:54;;;;;;;6.93;1.58;;;8.90;99.90;;;;;;5028326;28;20045;-34
2023/05/19 00:19:20;;;;;;;7.78;1.80;;;8.90;99.90;;;;;;5033822;28;20064;-34
2023/05/19 00:21:46;;;;;;;7.05;2.03;;;8.90;99.90;;;;;;5035304;28;20477;-34
2023/05/19 00:24:12;;;;;;;4.03;1.58;;;8.90;99.90;;;;;;5031848;28;20140;-34
2023/05/19 00:26:38;;;;;;;4.85;1.48;;;8.80;99.90;;;;;;5026231;28;20060;-34
2023/05/19 00:29:04;;;;;;;6.18;1.77;;;8.80;99.90;;;;;;5020877;28;20056;-35
2023/05/19 00:31:30;;;;;;;7.22;1.60;;;8.80;99.90;;;;;;5039187;28;20044;-34
2023/05/19 00:33:56;;;;;;;7.90;1.75;;;8.70;99.90;;;;;;5025921;28;20053;-34
2023/05/19 00:36:21;;;;;;;8.60;2.10;;;8.70;99.90;;;;;;5020733;28;21428;-34
2023/05/19 00:38:47;;;;;;;5.38;2.45;;;8.70;99.90;;;;;;5031520;28;20469;-34
2023/05/19 00:41:13;;;;;;;9.10;1.77;;;8.70;99.90;;;;;;5024754;28;20065;-34
2023/05/19 00:43:39;;;;;;;6.32;2.35;;;8.70;99.90;;;;;;5036131;28;20060;-34
2023/05/19 00:46:06;;;;;;;7.35;2.25;;;8.60;99.90;;;;;;5029186;28;20145;-34
2023/05/19 00:48:31;;;;;;;9.57;2.97;;;8.60;99.90;;;;;;5023666;28;20143;-34
2023/05/19 00:51:02;;;;;;;5.45;1.83;;;8.60;99.90;;;;;;5031982;28;20132;-34
2023/05/19 00:53:30;;;;;;;8.07;1.70;;;8.60;99.90;;;;;;5042155;28;20098;-34
2023/05/19 00:55:57;;;;;;;8.23;2.70;;;8.60;99.90;;;;;;5024469;28;20491;-34
2023/05/19 00:58:27;;;;;;;5.80;2.05;;;8.60;99.90;;;;;;5040385;28;20557;-34
2023/05/19 01:00:55;;;;;;;8.00;1.90;;;8.50;99.90;;;;;;5031952;28;20123;-34
2023/05/19 01:03:21;;;;;;;11.23;2.15;;;8.50;99.90;;;;;;5048963;28;20152;-34
2023/05/19 01:05:48;;;;;;;6.40;1.83;;;8.50;99.90;;;;;;5022333;28;20072;-34
2023/05/19 01:08:14;;;;;;;5.07;1.77;;;8.50;99.90;;;;;;5023280;28;20495;-34
2023/05/19 01:10:40;;;;;;;5.28;1.92;;;8.50;99.90;;;;;;5037800;28;20148;-34
2023/05/19 01:13:07;;;;;;;7.65;1.88;;;8.40;99.90;;;;;;5037162;28;20566;-34
2023/05/19 01:16:02;;;;;;;8.10;2.70;;;8.40;99.90;;;;;;5027275;28;20141;-34
2023/05/19 01:19:00;;;;;;;7.50;2.80;;;8.40;99.90;;;;;;5035095;28;20053;-34
2023/05/19 01:21:51;;;;;;;8.30;2.08;;;8.40;99.90;;;;;;5018840;28;20045;-34
2023/05/19 01:24:32;;;;;;;8.27;1.95;;;8.40;99.90;;;;;;5028393;28;20049;-34
2023/05/19 01:27:04;;;;;;;6.68;1.98;;;8.30;99.90;;;;;;5028283;28;20065;-34
2023/05/19 01:29:57;;;;;;;4.60;1.77;;;8.30;99.90;;;;;;5008207;28;20752;-34
2023/05/19 01:32:24;;;;;;;9.73;1.90;;;8.30;99.90;;;;;;5036246;28;20054;-34
2023/05/19 01:34:51;;;;;;;8.30;2.10;;;8.30;99.90;;;;;;5024136;28;20136;-34
2023/05/19 01:37:18;;;;;;;7.07;2.20;;;8.30;99.90;;;;;;5034115;28;20106;-34
2023/05/19 01:39:45;;;;;;;8.15;1.90;;;8.30;99.90;;;;;;5028079;28;20061;-34
2023/05/19 01:42:13;;;;;;;5.85;2.28;;;8.20;99.90;;;;;;5024486;28;20052;-34
2023/05/19 01:44:39;;;;;;;7.53;1.83;;;8.20;99.90;;;;;;5021776;28;20050;-34
2023/05/19 01:47:05;;;;;;;9.10;2.40;;;8.20;99.90;;;;;;5024612;28;20492;-34
2023/05/19 01:49:30;;;;;;;7.18;1.98;;;8.20;99.90;;;;;;5017333;28;20063;-33
2023/05/19 01:51:56;;;;;;;5.28;2.22;;;8.20;99.90;;;;;;5036362;28;20057;-34
2023/05/19 01:54:22;;;;;;;11.75;2.88;;;8.20;99.90;;;;;;5038409;28;20149;-34
2023/05/19 01:57:32;;;;;;;6.53;2.22;;;8.20;99.90;;;;;;5026343;28;20132;-34
2023/05/19 02:00:17;;;;;;;4.53;1.63;;;8.20;99.90;;;;;;5013001;28;20057;-34
2023/05/19 02:02:46;;;;;;;8.68;1.85;;;8.20;99.90;;;;;;5023826;28;20053;-34
2023/05/19 02:05:20;;;;;;;7.75;2.20;;;8.10;99.90;;;;;;5032212;28;20056;-33
2023/05/19 02:08:04;;;;;;;9.45;2.55;;;8.10;99.90;;;;;;5027978;28;20056;-33
2023/05/19 02:10:35;;;;;;;5.72;2.33;;;8.10;99.90;;;;;;5026340;28;20411;-35
2023/05/19 02:13:05;;;;;;;7.97;2.58;;;8.10;99.90;;;;;;5026780;28;20388;-34
2023/05/19 02:15:39;;;;;;;6.93;2.65;;;8.10;99.90;;;;;;5025961;28;20132;-34
2023/05/19 02:18:08;;;;;;;5.43;2.00;;;8.00;99.90;;;;;;5027400;28;20046;-34
2023/05/19 02:20:34;;;;;;;6.28;2.05;;;8.10;99.90;;;;;;5031899;28;20041;-34
2023/05/19 02:23:00;;;;;;;6.70;2.40;;;8.00;99.90;;;;;;5027218;28;20052;-34
2023/05/19 02:25:26;;;;;;;8.82;2.35;;;8.00;99.90;;;;;;5034249;28;20040;-34
2023/05/19 02:27:51;;;;;;;7.70;2.30;;;8.00;99.90;;;;;;5032278;28;20388;-34
2023/05/19 02:30:17;;;;;;;6.97;2.53;;;8.00;99.90;;;;;;5029851;28;20049;-34
2023/05/19 02:32:45;;;;;;;6.60;2.15;;;8.00;99.90;;;;;;5025186;28;20132;-34
2023/05/19 02:35:11;;;;;;;5.40;1.80;;;8.00;99.90;;;;;;5014428;28;20045;-34
2023/05/19 02:37:37;;;;;;;6.05;2.58;;;8.00;99.90;;;;;;5019096;28;20045;-34
2023/05/19 02:40:03;;;;;;;9.80;2.85;;;7.90;99.90;;;;;;5033709;28;20057;-34
2023/05/19 02:42:29;;;;;;;11.13;3.10;;;7.90;99.90;;;;;;5017653;28;20084;-34
2023/05/19 02:44:55;;;;;;;7.03;2.30;;;7.90;99.90;;;;;;5022892;28;20081;-34
2023/05/19 02:47:20;;;;;;;6.57;2.13;;;7.90;99.90;;;;;;5030599;28;20068;-34
2023/05/19 02:49:46;;;;;;;7.38;2.22;;;7.90;99.90;;;;;;5030287;28;20049;-34
2023/05/19 02:52:11;;;;;;;6.57;2.40;;;7.80;99.90;;;;;;5023693;28;20072;-34
2023/05/19 02:54:37;;;;;;;6.72;2.10;;;7.80;99.90;;;;;;5025481;28;20415;-34
2023/05/19 02:57:03;;;;;;;9.10;2.05;;;7.80;99.90;;;;;;5022242;28;20068;-34
2023/05/19 02:59:28;;;;;;;10.77;2.55;;;7.80;99.90;;;;;;5022630;28;20125;-34
2023/05/19 03:02:00;;;;;;;10.05;3.15;;;7.80;99.90;;;;;;5024377;28;20041;-34
2023/05/19 03:04:26;;;;;;;6.72;1.60;;;7.80;99.90;;;;;;5028972;28;20044;-34
2023/05/19 03:06:53;;;;;;;7.13;2.28;;;7.70;99.90;;;;;;5023948;28;20083;-34
2023/05/19 03:09:19;;;;;;;7.55;2.15;;;7.70;99.90;;;;;;5013209;28;20084;-34
2023/05/19 03:11:45;;;;;;;6.60;1.83;;;7.70;99.90;;;;;;5017886;28;20557;-34
2023/05/19 03:14:13;;;;;;;8.02;2.35;;;7.70;99.90;;;;;;5011994;28;20057;-34
2023/05/19 03:16:42;;;;;;;8.13;2.55;;;7.70;99.90;;;;;;5022149;28;20073;-34
2023/05/19 03:19:08;;;;;;;5.85;2.00;;;7.70;99.90;;;;;;5025101;28;20045;-34
2023/05/19 03:21:34;;;;;;;7.10;2.63;;;7.70;99.90;;;;;;5025360;28;20111;-34
2023/05/19 03:24:00;;;;;;;8.65;1.98;;;7.70;99.90;;;;;;5020277;28;20049;-34
2023/05/19 03:26:28;;;;;;;5.57;2.28;;;7.70;99.90;;;;;;5020846;28;20526;-34
2023/05/19 03:28:53;;;;;;;10.23;2.30;;;7.70;99.90;;;;;;5018036;28;20065;-34
2023/05/19 03:31:19;;;;;;;5.03;1.63;;;7.70;99.90;;;;;;5017570;28;20419;-34
2023/05/19 03:33:45;;;;;;;4.95;2.00;;;7.60;99.90;;;;;;5026986;28;20049;-34
2023/05/19 03:36:11;;;;;;;7.93;2.47;;;7.60;99.90;;;;;;5020151;28;20096;-34
2023/05/19 03:38:37;;;;;;;5.85;1.92;;;7.60;99.90;;;;;;5014314;28;20376;-34
2023/05/19 03:41:03;;;;;;;5.70;2.13;;;7.60;99.90;;;;;;5022958;28;20053;-33
2023/05/19 03:43:28;;;;;;;10.50;2.53;;;7.60;99.90;;;;;;5021869;28;20449;-33
2023/05/19 03:45:54;;;;;;;12.98;2.65;;;7.60;99.90;;;;;;5016989;28;20084;-34
2023/05/19 03:48:20;;;;;;;5.50;1.85;;;7.60;99.90;;;;;;5019132;28;20447;-34
2023/05/19 03:50:47;;;;;;;7.38;2.50;;;7.60;99.90;;;;;;5021521;28;20057;-34
2023/05/19 03:53:12;;;;;;;9.73;2.60;;;7.70;99.90;;;;;;5022492;28;20136;-34
2023/05/19 03:55:38;;;;;;;11.05;2.58;;;7.60;99.90;;;;;;5026661;28;20049;-33
2023/05/19 03:58:04;;;;;;;6.45;2.33;;;7.60;99.90;;;;;;5020509;28;20470;-34
2023/05/19 04:00:30;;;;;;;6.85;2.40;;;7.60;99.90;;;;;;5022663;28;20049;-34
2023/05/19 04:02:55;;;;;;;6.72;2.20;;;7.60;99.90;;;;;;5018108;28;20045;-33
2023/05/19 04:05:21;;;;;;;6.40;2.65;;;7.70;99.90;;;;;;5008307;28;20058;-34
2023/05/19 04:07:47;;;;;;;9.07;2.35;;;7.70;99.90;;;;;;5030272;28;20064;-34
2023/05/19 04:10:13;;;;;;;7.88;2.53;;;7.70;99.90;;;;;;5011936;28;20075;-34
2023/05/19 04:12:38;;;;;;;8.13;2.22;;;7.70;99.90;;;;;;5014700;28;20058;-35
2023/05/19 04:15:05;;;;;;;6.75;2.28;;;7.70;99.90;;;;;;5007738;28;20440;-34
2023/05/19 04:17:30;;;;;;;11.05;2.20;;;7.80;99.90;;;;;;5019941;28;20140;-34
2023/05/19 04:19:56;;;;;;;6.47;1.95;;;7.80;99.90;;;;;;5015223;28;20078;-34
2023/05/19 04:22:22;;;;;;;5.65;2.33;;;7.80;99.90;;;;;;5016136;28;20045;-35
2023/05/19 04:24:49;;;;;;;7.13;2.40;;;7.80;99.90;;;;;;5019805;28;20050;-34
2023/05/19 04:27:16;;;;;;;8.02;2.58;;;7.90;99.90;;;;;;5010884;28;20415;-34
2023/05/19 04:29:42;;;;;;;6.80;2.30;;;7.90;99.90;;;;;;5011594;28;20045;-36
2023/05/19 04:32:09;;;;;;;7.88;3.42;;;8.00;99.90;;;;;;5011855;28;20042;-34
2023/05/19 04:34:38;;;;;;;7.50;2.45;;;8.00;99.90;;;;;;5018340;28;20045;-34
2023/05/19 04:37:08;;;;;;;6.78;2.40;;;8.00;99.90;;;;;;5011405;28;20108;-35
2023/05/19 04:39:37;;;;;;;6.65;2.33;;;8.10;99.90;;;;;;5023424;28;20479;-34
2023/05/19 04:42:03;;;;;;;7.30;2.10;;;8.10;99.90;;;;;;5018850;28;20484;-33
2023/05/19 04:44:30;;;;;;;4.80;2.35;;;8.10;99.90;;;;;;5024492;28;20633;-34
2023/05/19 04:46:57;;;;;;;8.98;2.67;;;8.20;99.90;;;;;;5020036;28;20056;-34
2023/05/19 04:49:23;;;;;;;8.38;2.50;;;8.20;99.90;;;;;;5027514;28;20108;-34
2023/05/19 04:51:50;;;;;;;8.02;2.72;;;8.30;99.90;;;;;;5035995;28;20048;-34
2023/05/19 04:54:16;;;;;;;5.63;1.88;;;8.30;99.90;;;;;;5028163;28;20069;-34
2023/05/19 04:56:42;;;;;;;10.82;2.60;;;8.40;99.90;;;;;;5031695;28;20050;-34
2023/05/19 04:59:08;;;;;;;6.65;2.05;;;8.40;99.90;;;;;;5032451;28;20057;-34
2023/05/19 05:01:39;;;;;;;6.75;2.55;;;8.40;99.90;;;;;;5032568;28;20525;-35
2023/05/19 05:04:04;;;;;;;10.43;2.92;;;8.50;99.90;;;;;;5021342;28;20506;-33
2023/05/19 05:06:30;;;;;;;8.73;2.83;;;8.60;99.90;;;;;;5037375;28;20057;-34
2023/05/19 05:08:56;;;;;;;8.05;2.40;;;8.60;99.90;;;;;;5021968;28;20053;-34
2023/05/19 05:11:22;;;;;;;9.43;3.03;;;8.70;99.90;;;;;;5029775;28;20057;-33
2023/05/19 05:13:48;;;;;;;8.05;2.95;;;8.80;99.90;;;;;;5032248;28;20101;-34
2023/05/19 05:16:14;;;;;;;8.80;2.67;;;8.80;99.90;;;;;;5037952;28;20049;-34
2023/05/19 05:18:40;;;;;;;6.40;2.55;;;8.90;99.90;;;;;;5022208;28;20057;-33
2023/05/19 05:21:06;;;;;;;7.95;2.65;;;8.90;99.90;;;;;;5031832;28;20046;-34
2023/05/19 05:23:32;;;;;;;8.93;2.45;;;9.00;99.90;;;;;;5031775;28;20045;-34
2023/05/19 05:25:58;;;;;;;6.53;2.85;;;9.10;99.90;;;;;;5029976;28;20514;-34
2023/05/19 05:28:24;;;;;;;5.15;2.15;;;9.10;99.90;;;;;;5025193;28;20061;-35
2023/05/19 05:30:50;;;;;;;6.63;2.40;;;9.20;99.90;;;;;;5030676;28;20045;-33
2023/05/19 05:33:16;;;;;;;9.57;2.45;;;9.20;99.90;;;;;;5030383;28;20049;-34
2023/05/19 05:35:42;;;;;;;4.50;2.22;;;9.30;99.90;;;;;;5032047;28;20095;-34
2023/05/19 05:38:10;;;;;;;5.85;2.50;;;9.40;99.90;;;;;;5029495;28;20132;-34
2023/05/19 05:40:35;;;;;;;4.28;2.00;;;9.40;99.90;;;;;;5022700;28;20198;-34
2023/05/19 05:43:01;;;;;;;8.23;2.55;;;9.40;99.90;;;;;;5023371;28;20058;-34
2023/05/19 05:45:27;;;;;;;5.63;2.17;;;9.50;99.90;;;;;;5021209;28;20050;-34
2023/05/19 05:47:53;;;;;;;6.97;2.40;;;9.60;99.90;;;;;;5026599;28;20057;-35
2023/05/19 05:50:19;;;;;;;6.43;2.83;;;9.70;99.90;;;;;;5022999;28;20042;-34
2023/05/19 05:52:49;;;;;;;7.55;2.50;;;9.80;99.90;;;;;;5025677;28;20046;-34
2023/05/19 05:55:18;;;;;;;6.53;2.65;;;9.90;99.90;;;;;;5024606;28;20128;-33
2023/05/19 05:57:44;;;;;;;9.70;2.60;;;10.00;99.90;;;;;;5025372;28;20477;-33
2023/05/19 06:00:16;;;;;;;7.68;2.65;;;10.10;99.90;;;;;;5029500;28;20054;-33
2023/05/19 06:02:46;;;;;;;10.60;2.63;;;10.10;99.90;;;;;;5025119;28;20050;-35
2023/05/19 06:05:12;;;;;;;8.93;2.60;;;10.20;99.90;;;;;;5027314;28;20534;-34
2023/05/19 06:07:39;;;;;;;7.63;3.05;;;10.30;99.90;;;;;;5023359;28;20557;-34
2023/05/19 06:10:06;;;;;;;6.28;2.97;;;10.40;99.90;;;;;;5035911;28;20517;-34
2023/05/19 06:12:31;;;;;;;8.75;3.22;;;10.50;99.90;;;;;;5023710;28;20057;-34
2023/05/19 06:14:57;;;;;;;8.98;2.35;;;10.60;99.90;;;;;;5031063;28;20048;-34
2023/05/19 06:17:23;;;;;;;13.68;2.60;;;10.70;99.90;;;;;;5016187;28;20050;-34
2023/05/19 06:19:48;;;;;;;8.07;2.70;;;10.90;99.90;;;;;;5018280;28;20052;-34
2023/05/19 06:22:14;;;;;;;8.88;3.13;;;10.90;99.90;;;;;;5013886;28;20117;-34
2023/05/19 06:24:40;;;;;;;7.35;2.65;;;11.00;99.90;;;;;;5017209;28;20073;-34
2023/05/19 06:27:05;;;;;;;7.75;3.00;;;11.10;99.90;;;;;;5017802;28;20136;-35
2023/05/19 06:29:31;;;;;;;7.97;2.72;;;11.20;99.90;;;;;;5003327;28;20062;-34
2023/05/19 06:31:57;;;;;;;11.02;3.22;;;11.30;99.90;;;;;;5015942;28;20497;-35
2023/05/19 06:34:22;;;;;;;6.70;2.33;;;11.30;99.90;;;;;;5018764;28;20054;-34
2023/05/19 06:36:48;;;;;;;6.15;2.95;;;11.40;99.90;;;;;;5019434;28;20552;-34
2023/05/19 06:39:13;;;;;;;7.05;2.20;;;11.50;99.90;;;;;;5017725;28;20493;-34
2023/05/19 06:41:39;;;;;;;8.32;2.97;;;11.50;99.90;;;;;;5026558;28;20053;-34
2023/05/19 06:44:06;;;;;;;6.78;2.90;;;11.60;99.90;;;;;;5024887;28;20437;-34
2023/05/19 06:46:32;;;;;;;5.70;2.17;;;11.60;99.90;;;;;;5020021;28;20052;-33
2023/05/19 06:48:58;;;;;;;8.82;2.88;;;11.70;99.90;;;;;;5026136;28;20061;-34
2023/05/19 06:51:23;;;;;;;9.25;2.17;;;11.80;99.90;;;;;;5025023;28;20140;-34
2023/05/19 06:53:49;;;;;;;5.57;2.95;;;11.90;99.90;;;;;;5031130;28;20083;-34
2023/05/19 06:56:15;;;;;;;3.88;2.08;;;12.00;99.90;;;;;;5022386;28;20052;-34
2023/05/19 06:58:40;;;;;;;7.57;2.42;;;12.10;99.90;;;;;;5012555;28;20469;-34
2023/05/19 07:01:06;;;;;;;6.13;2.42;;;12.20;99.90;;;;;;5029216;28;20049;-33
2023/05/19 07:03:32;;;;;;;5.13;1.90;;;12.30;99.90;;;;;;5021099;28;20095;-33
2023/05/19 07:05:57;;;;;;;7.22;2.30;;;12.40;99.90;;;;;;5019788;28;20059;-34
2023/05/19 07:08:23;;;;;;;7.88;2.30;;;12.60;99.90;;;;;;5028364;28;20103;-34
2023/05/19 07:10:49;;;;;;;6.10;2.35;;;12.70;99.90;;;;;;5027506;28;20050;-34
2023/05/19 07:13:14;;;;;;;9.38;3.47;;;12.70;99.90;;;;;;5024958;28;20070;-34
2023/05/19 07:15:40;;;;;;;5.25;1.83;;;12.80;99.90;;;;;;5022193;28;20133;-34
2023/05/19 07:18:05;;;;;;;4.70;1.80;;;12.90;99.90;;;;;;5030802;28;20080;-35
2023/05/19 07:20:31;;;;;;;13.60;2.55;;;13.00;99.90;;;;;;5018565;28;20056;-35
2023/05/19 07:22:57;;;;;;;7.50;2.33;;;13.10;99.90;;;;;;5019034;28;20136;-35
2023/05/19 07:25:22;;;;;;;4.63;1.50;;;13.20;99.90;;;;;;5013579;28;20523;-34
2023/05/19 07:27:48;;;;;;;5.93;1.80;;;13.30;99.90;;;;;;5015143;28;20458;-35
2023/05/19 07:30:13;;;;;;;6.88;2.40;;;13.40;99.90;;;;;;5013470;28;20053;-35
2023/05/19 07:32:39;;;;;;;10.02;2.97;;;13.50;99.90;;;;;;5024255;28;20490;-35
2023/05/19 07:35:05;;;;;;;4.68;1.67;;;13.70;99.90;;;;;;5020983;28;20387;-35
2023/05/19 07:37:31;;;;;;;8.60;2.03;;;13.80;99.90;;;;;;5018451;28;20188;-35
2023/05/19 07:39:56;;;;;;;8.02;1.95;;;13.90;99.90;;;;;;5027868;28;20111;-35
2023/05/19 07:42:22;;;;;;;4.05;1.40;;;14.10;99.90;;;;;;5016069;28;20084;-35
2023/05/19 07:44:48;;;;;;;9.30;2.20;;;14.10;99.90;;;;;;5023174;28;20144;-35
2023/05/19 07:47:13;;;;;;;5.65;1.40;;;14.30;99.90;;;;;;5022286;28;20045;-35
2023/05/19 07:49:39;;;;;;;5.57;1.63;;;14.40;99.90;;;;;;5014301;28;20065;-35
2023/05/19 07:52:05;;;;;;;4.88;1.15;;;14.40;99.90;;;;;;5017072;28;20399;-35
2023/05/19 07:54:31;;;;;;;4.55;1.35;;;14.50;99.90;;;;;;5016403;28;20057;-35
2023/05/19 07:56:56;;;;;;;3.28;1.10;;;14.60;99.90;;;;;;5034507;28;20144;-34
2023/05/19 07:59:23;;;;;;;2.97;1.13;;;14.70;99.90;;;;;;5015695;28;20045;-35
2023/05/19 08:01:48;;;;;;;6.35;1.80;;;14.80;99.90;;;;;;5019967;28;20069;-35
2023/05/19 08:04:14;;;;;;;3.97;1.20;;;14.90;99.90;;;;;;5018851;28;20464;-35
2023/05/19 08:06:41;;;;;;;5.97;1.05;;;15.00;99.90;;;;;;5022212;28;20430;-35
2023/05/19 08:09:07;;;;;;;7.30;1.33;;;15.10;99.90;;;;;;5017704;28;20156;-35
2023/05/19 08:11:33;;;;;;;5.15;1.02;;;15.20;99.90;;;;;;5018154;28;20148;-35
2023/05/19 08:13:58;;;;;;;4.10;1.40;;;15.30;99.90;;;;;;5024825;28;20076;-35
2023/05/19 08:16:24;;;;;;;3.63;1.30;;;15.40;99.90;;;;;;5023323;28;20051;-35
2023/05/19 08:18:50;;;;;;;3.08;1.00;;;15.50;99.90;;;;;;5021798;28;20045;-35
2023/05/19 08:21:16;;;;;;;3.70;1.10;;;15.60;99.90;;;;;;5021612;28;20049;-34
2023/05/19 08:23:41;;;;;;;2.72;1.00;;;15.60;99.90;;;;;;5026010;28;20068;-34
2023/05/19 08:26:07;;;;;;;3.83;1.08;;;15.60;99.90;;;;;;5017932;28;20107;-34
2023/05/19 08:28:33;;;;;;;5.93;1.10;;;15.70;99.90;;;;;;5020140;28;20046;-34
2023/05/19 08:30:59;;;;;;;5.63;1.25;;;15.70;99.90;;;;;;5020422;28;20049;-34
2023/05/19 08:33:25;;;;;;;2.72;0.90;;;15.80;99.90;;;;;;5017817;28;20479;-34
2023/05/19 08:35:51;;;;;;;7.30;1.30;;;15.90;99.90;;;;;;5024982;28;20076;-34
2023/05/19 08:38:16;;;;;;;4.43;1.20;;;16.00;99.90;;;;;;5017308;28;20144;-33
2023/05/19 08:40:45;;;;;;;3.22;1.52;;;16.10;99.90;;;;;;5011844;28;20065;-34
2023/05/19 08:43:11;;;;;;;5.78;1.10;;;16.10;99.90;;;;;;5009178;28;20484;-34
2023/05/19 08:45:41;;;;;;;6.43;1.00;;;16.10;99.90;;;;;;5013697;28;20199;-34
2023/05/19 08:48:07;;;;;;;5.10;0.98;;;16.20;99.90;;;;;;5018926;28;20111;-33
2023/05/19 08:50:41;;;;;;;5.38;1.05;;;16.20;99.90;;;;;;5014722;28;20555;-33
2023/05/19 08:53:21;;;;;;;5.07;1.00;;;16.40;99.90;;;;;;5017368;28;20523;-34
2023/05/19 08:55:57;;;;;;;4.43;1.20;;;16.40;99.90;;;;;;5017746;28;20084;-34
2023/05/19 08:58:25;;;;;;;3.05;0.90;;;16.50;99.90;;;;;;5025255;28;20074;-33
2023/05/19 09:00:52;;;;;;;5.53;1.00;;;16.70;99.90;;;;;;5018919;28;20078;-34
2023/05/19 09:03:19;;;;;;;9.10;1.33;;;16.70;99.90;;;;;;5033041;28;20042;-34
2023/05/19 09:05:45;;;;;;;3.63;1.17;;;16.90;99.90;;;;;;5012529;28;20108;-34
2023/05/19 09:08:11;;;;;;;6.60;1.10;;;17.00;99.90;;;;;;5018397;28;20060;-34
2023/05/19 09:10:36;;;;;;;4.60;1.10;;;17.10;99.90;;;;;;5010348;28;20058;-35
2023/05/19 09:13:04;;;;;;;4.05;0.90;;;17.10;99.90;;;;;;5011798;28;20073;-35
2023/05/19 09:15:31;;;;;;;4.05;1.25;;;17.20;99.90;;;;;;5017904;28;20057;-35
2023/05/19 09:18:11;;;;;;;7.35;1.27;;;17.40;99.90;;;;;;5020370;28;20057;-34
2023/05/19 09:20:41;;;;;;;5.60;1.08;;;17.50;99.90;;;;;;5021772;28;20054;-35
2023/05/19 09:23:12;;;;;;;4.72;1.30;;;17.60;99.90;;;;;;5024233;28;20053;-34
2023/05/19 09:26:03;;;;;;;5.15;1.17;;;17.70;99.90;;;;;;5016787;28;20053;-34
2023/05/19 09:28:35;;;;;;;2.92;0.90;;;17.80;99.90;;;;;;5014961;28;20048;-34
2023/05/19 09:31:10;;;;;;;4.68;1.77;;;17.80;99.90;;;;;;5024086;28;20449;-34
2023/05/19 09:33:38;;;;;;;8.38;0.98;;;17.70;99.90;;;;;;5017614;28;20053;-35
2023/05/19 09:36:05;;;;;;;5.10;1.27;;;17.50;99.90;;;;;;5026843;28;20053;-35
2023/05/19 09:38:31;;;;;;;7.10;1.48;;;17.30;99.90;;;;;;5033457;28;20049;-35
2023/05/19 09:40:57;;;;;;;6.55;1.20;;;17.30;99.90;;;;;;5017190;28;20111;-35
2023/05/19 09:43:26;;;;;;;4.57;1.08;;;17.30;99.90;;;;;;5018810;28;20060;-35
2023/05/19 09:46:05;;;;;;;3.60;1.35;;;17.40;99.90;;;;;;5029352;28;20184;-35
2023/05/19 09:48:31;;;;;;;4.43;0.88;;;17.40;99.90;;;;;;5023294;28;20057;-34
2023/05/19 09:50:57;;;;;;;9.95;1.63;;;17.50;99.90;;;;;;5016297;28;20049;-35
2023/05/19 09:53:26;;;;;;;6.03;1.25;;;17.70;99.90;;;;;;5016746;28;20081;-35
2023/05/19 09:55:58;;;;;;;8.85;1.80;;;17.80;99.90;;;;;;5018010;28;20045;-35
2023/05/19 09:58:25;;;;;;;5.70;1.85;;;18.00;99.90;;;;;;5022128;28;20064;-35
2023/05/19 10:00:53;;;;;;;4.00;1.90;;;18.10;99.90;;;;;;5024306;28;20045;-35
2023/05/19 10:03:21;;;;;;;4.43;1.30;;;18.10;99.90;;;;;;5025405;28;20495;-35
2023/05/19 10:05:48;;;;;;;3.47;1.40;;;18.30;99.90;;;;;;5021200;28;20061;-35
2023/05/19 10:08:16;;;;;;;4.40;1.25;;;18.50;99.90;;;;;;5027540;28;20053;-35
2023/05/19 10:10:45;;;;;;;5.57;1.27;;;18.70;99.90;;;;;;5024113;28;20049;-35
2023/05/19 10:13:11;;;;;;;4.15;1.38;;;18.90;99.90;;;;;;5018996;28;20057;-35
2023/05/19 10:15:39;;;;;;;7.22;1.60;;;18.90;99.90;;;;;;5022724;28;20092;-35
2023/05/19 10:18:07;;;;;;;5.07;1.13;;;19.00;99.90;;;;;;5017245;28;20042;-35
2023/05/19 10:20:33;;;;;;;4.72;1.40;;;19.20;99.90;;;;;;5020526;28;20551;-35
2023/05/19 10:22:59;;;;;;;5.15;1.55;;;19.40;99.90;;;;;;5020523;28;20133;-35
2023/05/19 10:25:25;;;;;;;5.35;1.20;;;19.40;99.90;;;;;;5015074;28;20129;-35
2023/05/19 10:27:58;;;;;;;5.43;1.80;;;19.40;99.90;;;;;;5021289;28;20415;-35
2023/05/19 10:30:46;;;;;;;5.47;1.35;;;19.40;99.90;;;;;;5015491;28;20069;-35
2023/05/19 10:33:14;;;;;;;5.18;1.45;;;19.40;99.90;;;;;;5020372;28;20045;-35
2023/05/19 10:36:07;;;;;;;6.03;1.30;;;19.40;99.90;;;;;;5019972;28;20076;-35
2023/05/19 10:38:55;;;;;;;2.70;1.05;;;19.50;99.90;;;;;;5019468;28;20053;-35
2023/05/19 10:41:37;;;;;;;3.90;1.17;;;19.60;99.90;;;;;;5018407;28;20184;-35
2023/05/19 10:44:28;;;;;;;3.28;1.00;;;19.70;99.90;;;;;;5012119;28;20093;-35
2023/05/19 10:46:53;;;;;;;5.40;1.15;;;19.70;99.90;;;;;;5018056;28;20045;-35
2023/05/19 10:49:21;;;;;;;4.07;1.13;;;19.70;99.90;;;;;;5016248;28;20065;-35
2023/05/19 10:51:47;;;;;;;5.35;1.08;;;19.60;99.90;;;;;;5016864;28;20045;-35
2023/05/19 10:54:15;;;;;;;5.32;1.27;;;19.50;99.90;;;;;;5021396;28;20059;-35
2023/05/19 10:56:45;;;;;;;4.18;1.27;;;19.40;99.90;;;;;;5023202;28;20072;-35
2023/05/19 10:59:33;;;;;;;6.65;1.50;;;19.40;99.90;;;;;;5014690;28;20061;-35
2023/05/19 11:02:04;;;;;;;7.32;0.90;;;19.50;99.90;;;;;;5021239;28;20080;-35
2023/05/19 11:04:49;;;;;;;3.47;1.02;;;19.60;99.90;;;;;;5021828;28;20284;-35
2023/05/19 11:07:20;;;;;;;6.95;1.27;;;19.70;99.90;;;;;;5008675;28;20114;-35
2023/05/19 11:09:50;;;;;;;4.22;0.95;;;19.70;99.90;;;;;;5015405;28;20057;-35
2023/05/19 11:12:20;;;;;;;5.07;1.35;;;19.90;99.90;;;;;;5020861;28;20059;-35
2023/05/19 11:14:46;;;;;;;7.30;1.20;;;20.00;99.90;;;;;;5019158;28;20487;-35
2023/05/19 11:17:14;;;;;;;2.75;0.95;;;20.10;99.90;;;;;;5016077;28;20071;-35
2023/05/19 11:19:54;;;;;;;4.22;0.95;;;20.10;99.90;;;;;;5017212;28;20038;-35
2023/05/19 11:22:26;;;;;;;3.92;1.10;;;20.20;99.90;;;;;;5010656;28;20503;-35
2023/05/19 11:24:55;;;;;;;5.20;1.20;;;20.40;99.90;;;;;;5019548;28;20050;-35
2023/05/19 11:27:27;;;;;;;6.95;1.20;;;20.30;99.90;;;;;;5022389;28;20061;-35
2023/05/19 11:29:55;;;;;;;4.65;1.02;;;20.40;99.90;;;;;;5014629;28;20068;-35
2023/05/19 11:32:25;;;;;;;2.70;0.82;;;20.30;99.90;;;;;;5016041;28;20588;-35
2023/05/19 11:34:51;;;;;;;2.67;0.90;;;20.40;99.90;;;;;;5007204;28;20081;-35
2023/05/19 11:37:17;;;;;;;3.60;1.10;;;20.50;99.90;;;;;;4998706;28;20057;-35
2023/05/19 11:39:46;;;;;;;2.85;0.70;;;20.60;99.90;;;;;;5007584;28;20050;-35
2023/05/19 11:42:12;;;;;;;5.95;1.10;;;20.80;99.90;;;;;;5017436;28;20069;-35
2023/05/19 11:44:39;;;;;;;5.20;1.50;;;20.90;99.90;;;;;;5020047;28;20129;-35
2023/05/19 11:47:06;;;;;;;2.67;1.08;;;20.90;99.90;;;;;;5025487;28;20079;-35
2023/05/19 11:49:31;;;;;;;4.28;1.35;;;20.90;99.90;;;;;;5024372;28;20049;-35
2023/05/19 11:52:00;;;;;;;5.75;1.27;;;20.90;99.90;;;;;;5024720;28;20116;-35
2023/05/19 11:54:31;;;;;;;2.92;1.00;;;20.90;99.90;;;;;;5023595;28;20054;-35
2023/05/19 11:57:00;;;;;;;4.18;1.20;;;21.00;99.90;;;;;;5026951;28;20048;-35
2023/05/19 11:59:33;;;;;;;4.50;0.95;;;21.10;99.90;;;;;;5028737;28;20049;-35
2023/05/19 12:02:14;;;;;;;3.33;1.00;;;21.20;99.90;;;;;;5019286;28;20055;-35
2023/05/19 12:04:40;;;;;;;5.35;1.10;;;21.30;99.90;;;;;;5021598;28;20054;-35
2023/05/19 12:07:06;;;;;;;3.67;0.95;;;21.50;99.90;;;;;;5026865;28;20068;-35
2023/05/19 12:09:31;;;;;;;5.45;1.48;;;21.70;99.90;;;;;;5022156;28;20049;-35
2023/05/19 12:11:57;;;;;;;4.88;1.15;;;21.80;99.90;;;;;;5023001;28;20069;-35
2023/05/19 12:14:25;;;;;;;3.65;0.80;;;21.90;99.90;;;;;;4997665;28;20767;-35
2023/05/19 12:16:51;;;;;;;3.10;0.90;;;22.00;99.90;;;;;;5018280;28;20045;-35
2023/05/19 12:19:16;;;;;;;5.50;1.48;;;22.10;99.90;;;;;;5019999;28;20408;-35
2023/05/19 12:21:42;;;;;;;3.65;1.25;;;22.20;99.90;;;;;;5024377;28;20061;-35
2023/05/19 12:24:08;;;;;;;4.32;1.00;;;22.30;99.90;;;;;;5025548;28;20060;-35
2023/05/19 12:26:35;;;;;;;4.53;1.00;;;22.40;99.90;;;;;;5024821;28;20049;-35
2023/05/19 12:29:05;;;;;;;3.67;1.17;;;22.60;99.90;;;;;;5030153;28;20495;-35
2023/05/19 12:31:31;;;;;;;3.40;1.10;;;22.60;99.90;;;;;;5022863;28;20057;-35
2023/05/19 12:33:57;;;;;;;5.60;1.40;;;22.50;99.90;;;;;;5015176;28;20050;-35
2023/05/19 12:36:24;;;;;;;5.72;1.30;;;22.60;99.90;;;;;;5022057;28;20123;-35
2023/05/19 12:38:56;;;;;;;6.47;1.25;;;22.70;99.90;;;;;;5028354;28;20140;-35
2023/05/19 12:41:23;;;;;;;3.00;1.10;;;22.90;99.90;;;;;;5019318;28;20054;-35
2023/05/19 12:43:49;;;;;;;4.32;1.17;;;23.10;99.90;;;;;;5015018;28;20053;-35
2023/05/19 12:46:17;;;;;;;3.25;1.08;;;23.10;99.90;;;;;;5017359;28;20414;-35
2023/05/19 12:48:44;;;;;;;5.03;1.10;;;23.20;99.90;;;;;;5023807;28;20061;-35
2023/05/19 12:51:17;;;;;;;3.42;0.95;;;23.30;99.90;;;;;;5025775;28;20055;-35
2023/05/19 12:53:43;;;;;;;3.97;0.90;;;23.50;99.90;;;;;;5024290;28;20041;-35
2023/05/19 12:56:13;;;;;;;5.00;1.58;;;23.70;99.90;;;;;;5022584;28;20060;-35